createdAt,value
2018-09-05T00:00:40.941Z,100578.75
2018-09-05T00:01:47.622Z,100581.22
2018-09-05T00:02:54.003Z,100580.44
2018-09-05T00:04:00.419Z,100583.25
2018-09-05T00:05:06.726Z,100578.08
2018-09-05T00:06:13.078Z,100579.78
2018-09-05T00:07:19.393Z,100584.47
2018-09-05T00:08:25.651Z,100584.12
2018-09-05T00:09:32.093Z,100586.73
2018-09-05T00:10:39.109Z,100589.02
2018-09-05T00:11:45.564Z,100579.14
2018-09-05T00:12:51.821Z,100582.49
2018-09-05T00:13:58.152Z,100579.99
2018-09-05T00:15:04.226Z,100580.03
2018-09-05T00:16:10.415Z,100581.24
2018-09-05T00:17:16.487Z,100576.25
2018-09-05T00:18:23.080Z,100577.86
2018-09-05T00:19:29.503Z,100578.87
2018-09-05T00:20:36.161Z,100579.69
2018-09-05T00:21:42.533Z,100574.35
2018-09-05T00:22:48.990Z,100574.52
2018-09-05T00:23:54.929Z,100576.73
2018-09-05T00:25:01.320Z,100573.47
2018-09-05T00:26:07.568Z,100576.35
2018-09-05T00:27:13.696Z,100576.66
2018-09-05T00:28:20.108Z,100576.52
2018-09-05T00:29:26.540Z,100574.38
2018-09-05T00:30:32.826Z,100575.19
2018-09-05T00:31:38.440Z,100572.14
2018-09-05T00:32:44.235Z,100573.38
2018-09-05T00:33:50.300Z,100575.38
2018-09-05T00:34:56.411Z,100573.31
2018-09-05T00:36:03.823Z,100577.14
2018-09-05T00:37:10.034Z,100571.18
2018-09-05T00:38:16.404Z,100568.19
2018-09-05T00:39:27.645Z,100575.03
2018-09-05T00:40:33.935Z,100567.32
2018-09-05T00:41:40.785Z,100572.31
2018-09-05T00:42:47.023Z,100576.80
2018-09-05T00:43:53.311Z,100575.86
2018-09-05T00:44:59.709Z,100570.58
2018-09-05T00:46:06.131Z,100569.77
2018-09-05T00:47:12.131Z,100579.03
2018-09-05T00:48:18.519Z,100578.27
2018-09-05T00:49:24.831Z,100571.50
2018-09-05T00:50:30.467Z,100570.33
2018-09-05T00:51:36.958Z,100573.75
2018-09-05T00:52:43.383Z,100575.97
2018-09-05T00:53:49.690Z,100570.62
2018-09-05T00:54:55.831Z,100568.82
2018-09-05T00:56:02.442Z,100570.76
2018-09-05T00:57:08.732Z,100570.65
2018-09-05T00:58:15.065Z,100567.19
2018-09-05T00:59:21.377Z,100565.42
2018-09-05T01:00:27.989Z,100561.40
2018-09-05T01:01:32.890Z,100568.29
2018-09-05T01:02:39.293Z,100565.88
2018-09-05T01:03:45.565Z,100564.88
2018-09-05T01:04:51.889Z,100565.61
2018-09-05T01:05:58.142Z,100564.05
2018-09-05T01:07:03.744Z,100567.44
2018-09-05T01:08:09.940Z,100568.17
2018-09-05T01:09:16.112Z,100563.20
2018-09-05T01:10:22.256Z,100569.23
2018-09-05T01:11:28.538Z,100565.84
2018-09-05T01:12:34.972Z,100567.06
2018-09-05T01:13:41.247Z,100564.45
2018-09-05T01:14:46.976Z,100565.30
2018-09-05T01:15:53.420Z,100570.00
2018-09-05T01:16:59.781Z,100566.86
2018-09-05T01:18:05.828Z,100568.92
2018-09-05T01:19:11.925Z,100567.20
2018-09-05T01:20:18.204Z,100570.36
2018-09-05T01:21:24.518Z,100567.12
2018-09-05T01:22:30.216Z,100568.67
2018-09-05T01:23:37.120Z,100567.00
2018-09-05T01:24:43.556Z,100569.22
2018-09-05T01:25:49.645Z,100569.74
2018-09-05T01:26:56.004Z,100579.83
2018-09-05T01:28:02.060Z,100573.34
2018-09-05T01:29:22.297Z,100575.14
2018-09-05T01:30:28.648Z,100573.72
2018-09-05T01:31:34.692Z,100574.77
2018-09-05T01:32:41.551Z,100576.35
2018-09-05T01:33:47.645Z,100579.57
2018-09-05T01:34:53.773Z,100572.31
2018-09-05T01:35:59.727Z,100573.42
2018-09-05T01:37:05.252Z,100578.20
2018-09-05T01:38:11.659Z,100579.89
2018-09-05T01:39:17.919Z,100577.86
2018-09-05T01:40:24.325Z,100577.52
2018-09-05T01:41:30.700Z,100581.38
2018-09-05T01:42:37.037Z,100580.64
2018-09-05T01:43:43.591Z,100582.83
2018-09-05T01:44:49.861Z,100574.78
2018-09-05T01:45:56.201Z,100581.54
2018-09-05T01:47:02.492Z,100577.98
2018-09-05T01:48:08.628Z,100577.98
2018-09-05T01:49:14.680Z,100577.97
2018-09-05T01:50:19.908Z,100579.16
2018-09-05T01:51:26.070Z,100574.41
2018-09-05T01:52:32.531Z,100575.70
2018-09-05T01:53:38.856Z,100578.38
2018-09-05T01:54:45.393Z,100578.30
2018-09-05T01:55:51.488Z,100577.67
2018-09-05T01:56:57.784Z,100574.17
2018-09-05T01:58:04.014Z,100576.58
2018-09-05T01:59:10.056Z,100577.75
2018-09-05T02:00:15.933Z,100578.50
2018-09-05T02:01:22.116Z,100577.81
2018-09-05T02:02:28.404Z,100573.68
2018-09-05T02:03:34.740Z,100576.92
2018-09-05T02:04:41.031Z,100578.49
2018-09-05T02:05:47.144Z,100580.95
2018-09-05T02:06:53.499Z,100582.92
2018-09-05T02:07:59.887Z,100583.73
2018-09-05T02:09:06.124Z,100581.81
2018-09-05T02:10:12.276Z,100586.23
2018-09-05T02:11:18.398Z,100581.38
2018-09-05T02:12:24.721Z,100576.61
2018-09-05T02:13:31.126Z,100578.94
2018-09-05T02:14:37.421Z,100573.70
2018-09-05T02:15:43.763Z,100576.45
2018-09-05T02:16:50.052Z,100576.78
2018-09-05T02:17:56.464Z,100578.20
2018-09-05T02:19:02.612Z,100580.17
2018-09-05T02:20:08.652Z,100585.38
2018-09-05T02:21:14.698Z,100583.70
2018-09-05T02:22:20.992Z,100582.06
2018-09-05T02:23:27.339Z,100587.55
2018-09-05T02:24:33.426Z,100583.41
2018-09-05T02:25:39.820Z,100588.12
2018-09-05T02:26:46.198Z,100582.52
2018-09-05T02:27:52.377Z,100583.98
2018-09-05T02:28:58.792Z,100582.23
2018-09-05T02:30:04.368Z,100586.91
2018-09-05T02:31:10.771Z,100586.66
2018-09-05T02:32:17.144Z,100582.70
2018-09-05T02:33:23.428Z,100590.20
2018-09-05T02:34:29.715Z,100586.37
2018-09-05T02:35:35.814Z,100593.42
2018-09-05T02:36:42.223Z,100593.63
2018-09-05T02:37:48.361Z,100594.70
2018-09-05T02:38:54.780Z,100599.30
2018-09-05T02:40:01.118Z,100596.91
2018-09-05T02:41:07.061Z,100598.62
2018-09-05T02:42:13.498Z,100593.44
2018-09-05T02:43:19.716Z,100593.83
2018-09-05T02:44:25.814Z,100602.00
2018-09-05T02:45:32.242Z,100590.63
2018-09-05T02:46:38.664Z,100594.01
2018-09-05T02:47:44.939Z,100587.84
2018-09-05T02:48:51.279Z,100591.80
2018-09-05T02:49:57.573Z,100590.44
2018-09-05T02:51:03.880Z,100590.95
2018-09-05T02:52:09.986Z,100591.52
2018-09-05T02:53:16.393Z,100589.09
2018-09-05T02:54:22.734Z,100584.27
2018-09-05T02:55:28.759Z,100589.05
2018-09-05T02:56:35.133Z,100593.08
2018-09-05T02:57:42.318Z,100587.41
2018-09-05T02:58:48.409Z,100591.88
2018-09-05T02:59:54.784Z,100591.91
2018-09-05T03:01:01.365Z,100589.02
2018-09-05T03:02:07.722Z,100580.81
2018-09-05T03:03:14.136Z,100583.34
2018-09-05T03:04:20.596Z,100581.88
2018-09-05T03:05:26.765Z,100582.92
2018-09-05T03:06:32.870Z,100586.09
2018-09-05T03:07:39.302Z,100588.41
2018-09-05T03:08:45.725Z,100588.05
2018-09-05T03:09:52.012Z,100594.05
2018-09-05T03:10:58.422Z,100587.27
2018-09-05T03:12:04.476Z,100594.27
2018-09-05T03:13:10.467Z,100591.73
2018-09-05T03:14:16.872Z,100592.52
2018-09-05T03:15:22.922Z,100592.34
2018-09-05T03:16:29.089Z,100600.27
2018-09-05T03:17:35.164Z,100597.34
2018-09-05T03:18:41.577Z,100595.63
2018-09-05T03:19:47.919Z,100594.20
2018-09-05T03:20:53.980Z,100594.77
2018-09-05T03:22:00.412Z,100592.98
2018-09-05T03:23:06.835Z,100590.38
2018-09-05T03:24:12.980Z,100593.13
2018-09-05T03:25:19.250Z,100590.27
2018-09-05T03:26:25.691Z,100595.02
2018-09-05T03:27:31.797Z,100588.09
2018-09-05T03:28:38.068Z,100589.87
2018-09-05T03:29:44.423Z,100592.62
2018-09-05T03:30:50.507Z,100594.19
2018-09-05T03:31:56.811Z,100594.47
2018-09-05T03:33:03.293Z,100594.73
2018-09-05T03:34:09.876Z,100592.23
2018-09-05T03:35:16.259Z,100602.16
2018-09-05T03:36:22.653Z,100591.80
2018-09-05T03:37:28.989Z,100597.05
2018-09-05T03:38:35.428Z,100595.02
2018-09-05T03:39:41.409Z,100596.63
2018-09-05T03:40:47.819Z,100595.98
2018-09-05T03:41:54.233Z,100599.09
2018-09-05T03:43:00.333Z,100595.27
2018-09-05T03:44:06.149Z,100602.91
2018-09-05T03:45:12.553Z,100602.62
2018-09-05T03:46:18.697Z,100598.77
2018-09-05T03:47:24.734Z,100601.55
2018-09-05T03:48:31.184Z,100599.33
2018-09-05T03:49:37.688Z,100600.48
2018-09-05T03:50:44.220Z,100595.12
2018-09-05T03:51:50.676Z,100597.08
2018-09-05T03:52:57.050Z,100599.33
2018-09-05T03:54:03.460Z,100603.86
2018-09-05T03:55:09.911Z,100606.86
2018-09-05T03:56:15.937Z,100610.17
2018-09-05T03:57:21.965Z,100608.85
2018-09-05T03:58:28.260Z,100609.31
2018-09-05T03:59:34.632Z,100612.02
2018-09-05T04:00:40.942Z,100608.80
2018-09-05T04:01:47.238Z,100614.72
2018-09-05T04:02:53.345Z,100615.48
2018-09-05T04:04:00.033Z,100612.02
2018-09-05T04:05:05.596Z,100615.62
2018-09-05T04:06:11.758Z,100611.80
2018-09-05T04:07:18.180Z,100616.19
2018-09-05T04:08:24.247Z,100615.65
2018-09-05T04:09:31.457Z,100616.55
2018-09-05T04:10:37.832Z,100622.95
2018-09-05T04:11:44.262Z,100617.92
2018-09-05T04:12:50.566Z,100619.67
2018-09-05T04:13:56.977Z,100618.21
2018-09-05T04:15:03.117Z,100620.61
2018-09-05T04:16:09.222Z,100618.19
2018-09-05T04:17:15.606Z,100616.44
2018-09-05T04:18:21.721Z,100616.15
2018-09-05T04:19:28.056Z,100620.42
2018-09-05T04:20:34.340Z,100622.81
2018-09-05T04:21:40.735Z,100621.14
2018-09-05T04:22:47.162Z,100621.17
2018-09-05T04:23:53.600Z,100622.03
2018-09-05T04:24:59.921Z,100625.81
2018-09-05T04:26:06.258Z,100626.38
2018-09-05T04:27:12.546Z,100627.44
2018-09-05T04:28:18.848Z,100631.45
2018-09-05T04:29:25.156Z,100630.89
2018-09-05T04:30:31.789Z,100629.59
2018-09-05T04:31:38.074Z,100626.38
2018-09-05T04:32:44.447Z,100631.52
2018-09-05T04:33:50.693Z,100629.86
2018-09-05T04:34:57.131Z,100631.93
2018-09-05T04:36:03.413Z,100632.98
2018-09-05T04:37:09.783Z,100633.37
2018-09-05T04:38:15.977Z,100631.20
2018-09-05T04:39:22.365Z,100633.95
2018-09-05T04:40:28.439Z,100634.20
2018-09-05T04:41:34.888Z,100633.78
2018-09-05T04:42:41.036Z,100633.37
2018-09-05T04:43:47.416Z,100632.59
2018-09-05T04:44:53.739Z,100635.27
2018-09-05T04:46:00.023Z,100632.34
2018-09-05T04:47:06.167Z,100636.95
2018-09-05T04:48:12.465Z,100634.38
2018-09-05T04:49:20.253Z,100631.28
2018-09-05T04:50:26.786Z,100633.22
2018-09-05T04:51:32.608Z,100637.45
2018-09-05T04:52:39.079Z,100643.23
2018-09-05T04:53:45.566Z,100640.09
2018-09-05T04:54:51.649Z,100641.80
2018-09-05T04:55:58.673Z,100642.88
2018-09-05T04:57:04.680Z,100640.77
2018-09-05T04:58:11.119Z,100641.83
2018-09-05T04:59:17.280Z,100640.52
2018-09-05T05:00:24.382Z,100643.70
2018-09-05T05:01:30.779Z,100645.98
2018-09-05T05:02:36.936Z,100640.27
2018-09-05T05:03:43.299Z,100643.63
2018-09-05T05:04:50.086Z,100648.77
2018-09-05T05:05:56.487Z,100647.27
2018-09-05T05:07:03.031Z,100649.66
2018-09-05T05:08:09.500Z,100645.98
2018-09-05T05:09:15.857Z,100645.98
2018-09-05T05:10:22.322Z,100650.91
2018-09-05T05:11:40.991Z,100648.70
2018-09-05T05:12:47.532Z,100652.74
2018-09-05T05:13:54.099Z,100660.20
2018-09-05T05:15:00.739Z,100657.09
2018-09-05T05:16:06.839Z,100658.66
2018-09-05T05:17:13.277Z,100655.84
2018-09-05T05:18:19.209Z,100655.95
2018-09-05T05:19:26.100Z,100655.84
2018-09-05T05:20:32.526Z,100650.98
2018-09-05T05:21:38.811Z,100655.95
2018-09-05T05:22:45.112Z,100652.09
2018-09-05T05:23:51.529Z,100656.77
2018-09-05T05:24:57.988Z,100655.05
2018-09-05T05:26:04.290Z,100658.20
2018-09-05T05:27:10.672Z,100659.34
2018-09-05T05:28:17.117Z,100661.02
2018-09-05T05:29:24.177Z,100659.63
2018-09-05T05:30:30.674Z,100668.66
2018-09-05T05:31:37.048Z,100666.88
2018-09-05T05:32:43.554Z,100670.42
2018-09-05T05:33:50.125Z,100662.81
2018-09-05T05:34:56.260Z,100665.70
2018-09-05T05:36:02.736Z,100666.03
2018-09-05T05:37:08.995Z,100661.75
2018-09-05T05:38:15.163Z,100667.60
2018-09-05T05:39:21.212Z,100667.74
2018-09-05T05:40:27.261Z,100663.70
2018-09-05T05:41:33.511Z,100662.20
2018-09-05T05:42:39.866Z,100659.34
2018-09-05T05:43:46.640Z,100665.55
2018-09-05T05:44:52.787Z,100664.61
2018-09-05T05:45:58.843Z,100668.73
2018-09-05T05:47:04.508Z,100669.05
2018-09-05T05:48:10.908Z,100669.59
2018-09-05T05:49:17.030Z,100675.79
2018-09-05T05:50:23.432Z,100669.95
2018-09-05T05:51:29.759Z,100667.71
2018-09-05T05:52:36.170Z,100677.93
2018-09-05T05:53:42.269Z,100679.09
2018-09-05T05:54:48.689Z,100676.42
2018-09-05T05:55:55.160Z,100681.70
2018-09-05T05:57:01.511Z,100678.87
2018-09-05T05:58:07.961Z,100672.55
2018-09-05T05:59:14.279Z,100677.23
2018-09-05T06:00:20.417Z,100674.08
2018-09-05T06:01:26.839Z,100679.83
2018-09-05T06:02:33.330Z,100680.97
2018-09-05T06:03:39.700Z,100675.23
2018-09-05T06:04:45.992Z,100679.48
2018-09-05T06:05:52.483Z,100677.90
2018-09-05T06:06:58.962Z,100674.89
2018-09-05T06:08:05.378Z,100677.71
2018-09-05T06:09:11.684Z,100679.36
2018-09-05T06:10:17.996Z,100677.08
2018-09-05T06:11:24.150Z,100684.33
2018-09-05T06:12:30.553Z,100682.86
2018-09-05T06:13:36.910Z,100682.54
2018-09-05T06:14:43.287Z,100689.02
2018-09-05T06:15:50.354Z,100684.00
2018-09-05T06:16:56.813Z,100686.45
2018-09-05T06:18:03.226Z,100684.94
2018-09-05T06:19:10.262Z,100687.27
2018-09-05T06:20:16.692Z,100681.73
2018-09-05T06:21:23.066Z,100678.89
2018-09-05T06:22:28.669Z,100688.50
2018-09-05T06:23:35.163Z,100687.73
2018-09-05T06:24:41.257Z,100694.59
2018-09-05T06:25:47.993Z,100692.09
2018-09-05T06:26:54.444Z,100692.22
2018-09-05T06:28:02.618Z,100688.94
2018-09-05T06:29:08.780Z,100695.48
2018-09-05T06:30:15.186Z,100695.25
2018-09-05T06:31:22.551Z,100694.83
2018-09-05T06:32:29.133Z,100701.28
2018-09-05T06:33:35.520Z,100695.91
2018-09-05T06:34:41.908Z,100693.73
2018-09-05T06:35:48.299Z,100698.62
2018-09-05T06:36:55.026Z,100702.44
2018-09-05T06:38:01.358Z,100700.27
2018-09-05T06:39:07.686Z,100693.87
2018-09-05T06:40:14.265Z,100693.44
2018-09-05T06:41:20.689Z,100695.40
2018-09-05T06:42:27.098Z,100698.25
2018-09-05T06:43:33.489Z,100697.78
2018-09-05T06:44:39.850Z,100691.41
2018-09-05T06:45:46.148Z,100696.31
2018-09-05T06:46:52.446Z,100697.82
2018-09-05T06:47:58.750Z,100690.70
2018-09-05T06:49:05.014Z,100694.47
2018-09-05T06:50:11.387Z,100693.75
2018-09-05T06:51:17.711Z,100688.91
2018-09-05T06:52:24.991Z,100690.31
2018-09-05T06:53:31.359Z,100691.66
2018-09-05T06:54:37.674Z,100690.27
2018-09-05T06:55:44.153Z,100692.80
2018-09-05T06:56:50.451Z,100692.06
2018-09-05T06:57:56.636Z,100696.31
2018-09-05T06:59:03.060Z,100686.44
2018-09-05T07:00:10.337Z,100693.86
2018-09-05T07:01:16.561Z,100686.52
2018-09-05T07:02:23.008Z,100689.58
2018-09-05T07:03:29.246Z,100688.77
2018-09-05T07:04:35.890Z,100688.28
2018-09-05T07:05:42.067Z,100694.41
2018-09-05T07:06:48.697Z,100694.47
2018-09-05T07:07:55.077Z,100689.92
2018-09-05T07:09:01.517Z,100689.56
2018-09-05T07:10:08.408Z,100694.48
2018-09-05T07:11:14.901Z,100689.73
2018-09-05T07:12:21.293Z,100691.58
2018-09-05T07:13:27.600Z,100687.56
2018-09-05T07:14:33.980Z,100695.68
2018-09-05T07:15:40.664Z,100689.86
2018-09-05T07:16:47.149Z,100689.36
2018-09-05T07:17:53.713Z,100689.10
2018-09-05T07:18:59.829Z,100689.53
2018-09-05T07:20:05.612Z,100690.94
2018-09-05T07:21:11.791Z,100692.47
2018-09-05T07:22:18.294Z,100693.28
2018-09-05T07:23:24.709Z,100688.32
2018-09-05T07:24:31.118Z,100693.63
2018-09-05T07:25:37.459Z,100694.31
2018-09-05T07:26:43.851Z,100693.63
2018-09-05T07:27:50.262Z,100688.89
2018-09-05T07:28:57.035Z,100694.36
2018-09-05T07:30:03.174Z,100698.21
2018-09-05T07:31:09.635Z,100696.97
2018-09-05T07:32:15.611Z,100694.91
2018-09-05T07:33:22.156Z,100694.91
2018-09-05T07:34:29.528Z,100692.42
2018-09-05T07:35:37.289Z,100697.66
2018-09-05T07:36:43.898Z,100699.06
2018-09-05T07:37:51.777Z,100696.08
2018-09-05T07:38:58.077Z,100701.77
2018-09-05T07:40:04.688Z,100700.19
2018-09-05T07:41:14.180Z,100699.38
2018-09-05T07:42:21.956Z,100701.00
2018-09-05T07:43:28.867Z,100700.15
2018-09-05T07:44:34.973Z,100703.78
2018-09-05T07:45:41.103Z,100704.84
2018-09-05T07:46:47.476Z,100702.27
2018-09-05T07:47:54.174Z,100706.00
2018-09-05T07:49:00.418Z,100708.39
2018-09-05T07:50:06.468Z,100706.59
2018-09-05T07:51:12.832Z,100706.37
2018-09-05T07:52:19.247Z,100712.96
2018-09-05T07:53:25.676Z,100711.70
2018-09-05T07:54:32.126Z,100709.03
2018-09-05T07:55:38.611Z,100710.48
2018-09-05T07:56:45.020Z,100712.36
2018-09-05T07:57:51.431Z,100713.37
2018-09-05T07:58:57.539Z,100713.59
2018-09-05T08:00:03.352Z,100713.67
2018-09-05T08:01:09.889Z,100720.30
2018-09-05T08:02:16.161Z,100720.89
2018-09-05T08:03:22.287Z,100715.94
2018-09-05T08:04:28.629Z,100709.66
2018-09-05T08:05:35.235Z,100713.53
2018-09-05T08:06:41.526Z,100714.17
2018-09-05T08:07:47.839Z,100713.00
2018-09-05T08:08:54.963Z,100711.78
2018-09-05T08:10:01.736Z,100713.67
2018-09-05T08:11:08.233Z,100715.92
2018-09-05T08:12:14.600Z,100710.48
2018-09-05T08:13:21.004Z,100713.19
2018-09-05T08:14:27.425Z,100711.63
2018-09-05T08:15:33.967Z,100713.03
2018-09-05T08:16:40.368Z,100715.66
2018-09-05T08:17:46.823Z,100718.13
2018-09-05T08:18:53.245Z,100713.47
2018-09-05T08:19:59.439Z,100723.48
2018-09-05T08:21:05.873Z,100719.06
2018-09-05T08:22:12.268Z,100718.21
2018-09-05T08:23:18.655Z,100712.73
2018-09-05T08:24:24.642Z,100719.96
2018-09-05T08:25:31.415Z,100714.39
2018-09-05T08:26:37.999Z,100716.39
2018-09-05T08:27:44.314Z,100713.74
2018-09-05T08:28:50.776Z,100716.21
2018-09-05T08:29:56.859Z,100712.69
2018-09-05T08:31:02.984Z,100708.93
2018-09-05T08:32:09.453Z,100715.68
2018-09-05T08:33:15.984Z,100713.22
2018-09-05T08:34:22.521Z,100716.93
2018-09-05T08:35:29.914Z,100719.96
2018-09-05T08:36:38.100Z,100713.31
2018-09-05T08:37:44.317Z,100713.83
2018-09-05T08:38:50.618Z,100717.58
2018-09-05T08:39:57.259Z,100721.77
2018-09-05T08:41:03.465Z,100716.88
2018-09-05T08:42:10.614Z,100718.69
2018-09-05T08:43:17.171Z,100716.62
2018-09-05T08:44:23.768Z,100713.34
2018-09-05T08:45:30.229Z,100708.69
2018-09-05T08:46:36.420Z,100711.27
2018-09-05T08:47:42.874Z,100716.45
2018-09-05T08:48:48.942Z,100714.11
2018-09-05T08:49:55.356Z,100715.57
2018-09-05T08:51:01.761Z,100715.00
2018-09-05T08:52:08.115Z,100714.77
2018-09-05T08:53:14.423Z,100709.36
2018-09-05T08:54:21.012Z,100715.13
2018-09-05T08:55:27.466Z,100705.50
2018-09-05T08:56:34.053Z,100714.83
2018-09-05T08:57:40.496Z,100711.00
2018-09-05T08:58:46.930Z,100710.22
2018-09-05T08:59:53.513Z,100713.03
2018-09-05T09:01:00.042Z,100714.27
2018-09-05T09:02:05.743Z,100715.95
2018-09-05T09:03:12.242Z,100710.27
2018-09-05T09:04:18.635Z,100711.14
2018-09-05T09:05:24.950Z,100714.67
2018-09-05T09:06:31.567Z,100714.36
2018-09-05T09:07:37.803Z,100707.06
2018-09-05T09:08:44.188Z,100710.55
2018-09-05T09:09:50.855Z,100707.30
2018-09-05T09:10:57.240Z,100718.83
2018-09-05T09:12:03.452Z,100714.95
2018-09-05T09:13:10.644Z,100708.75
2018-09-05T09:14:17.180Z,100715.93
2018-09-05T09:15:23.824Z,100715.97
2018-09-05T09:16:30.145Z,100716.56
2018-09-05T09:17:36.630Z,100714.66
2018-09-05T09:18:42.821Z,100716.81
2018-09-05T09:19:49.196Z,100714.78
2018-09-05T09:20:56.297Z,100709.08
2018-09-05T09:22:02.383Z,100711.79
2018-09-05T09:23:08.735Z,100710.42
2018-09-05T09:24:14.809Z,100711.80
2018-09-05T09:25:21.400Z,100703.06
2018-09-05T09:26:27.864Z,100707.58
2018-09-05T09:27:33.952Z,100709.17
2018-09-05T09:28:40.408Z,100709.06
2018-09-05T09:29:48.128Z,100705.48
2018-09-05T09:30:54.512Z,100702.80
2018-09-05T09:32:06.137Z,100700.55
2018-09-05T09:33:19.491Z,100700.15
2018-09-05T09:34:32.440Z,100705.34
2018-09-05T09:35:41.096Z,100698.72
2018-09-05T09:36:47.381Z,100699.09
2018-09-05T09:37:54.068Z,100703.26
2018-09-05T09:39:00.517Z,100694.27
2018-09-05T09:40:06.603Z,100695.81
2018-09-05T09:41:12.910Z,100689.78
2018-09-05T09:42:19.266Z,100692.39
2018-09-05T09:43:25.643Z,100694.10
2018-09-05T09:44:32.079Z,100685.12
2018-09-05T09:45:38.470Z,100693.23
2018-09-05T09:46:45.507Z,100692.89
2018-09-05T09:47:52.064Z,100688.09
2018-09-05T09:48:58.436Z,100693.45
2018-09-05T09:50:05.109Z,100696.12
2018-09-05T09:51:11.414Z,100692.06
2018-09-05T09:52:17.797Z,100686.72
2018-09-05T09:53:23.836Z,100691.28
2018-09-05T09:54:30.204Z,100689.67
2018-09-05T09:55:36.773Z,100696.23
2018-09-05T09:56:43.217Z,100689.13
2018-09-05T09:57:49.751Z,100686.75
2018-09-05T09:58:56.240Z,100686.42
2018-09-05T10:00:02.439Z,100680.80
2018-09-05T10:01:08.352Z,100683.05
2018-09-05T10:04:08.225Z,100679.73
2018-09-05T10:05:43.960Z,100682.55
2018-09-05T10:07:03.003Z,100680.24
2018-09-05T10:08:09.465Z,100675.98
2018-09-05T10:09:15.693Z,100671.83
2018-09-05T10:10:22.247Z,100668.89
2018-09-05T10:11:28.299Z,100673.14
2018-09-05T10:12:41.201Z,100671.02
2018-09-05T10:13:47.430Z,100666.03
2018-09-05T10:14:53.887Z,100663.31
2018-09-05T10:15:59.757Z,100665.61
2018-09-05T10:17:07.146Z,100669.33
2018-09-05T10:18:13.174Z,100669.19
2018-09-05T10:19:20.052Z,100669.02
2018-09-05T10:20:27.669Z,100668.58
2018-09-05T10:21:34.041Z,100662.72
2018-09-05T10:22:40.526Z,100666.08
2018-09-05T10:23:47.084Z,100665.61
2018-09-05T10:24:53.157Z,100665.08
2018-09-05T10:25:59.996Z,100664.09
2018-09-05T10:27:06.356Z,100664.30
2018-09-05T10:28:13.104Z,100664.60
2018-09-05T10:29:19.557Z,100652.28
2018-09-05T10:30:26.301Z,100657.89
2018-09-05T10:31:32.453Z,100659.77
2018-09-05T10:32:38.909Z,100662.07
2018-09-05T10:33:45.198Z,100662.20
2018-09-05T10:34:51.783Z,100653.00
2018-09-05T10:35:58.259Z,100656.09
2018-09-05T10:37:04.644Z,100657.44
2018-09-05T10:38:11.079Z,100651.23
2018-09-05T10:39:17.483Z,100650.75
2018-09-05T10:40:23.942Z,100647.23
2018-09-05T10:41:30.333Z,100643.99
2018-09-05T10:42:36.965Z,100638.98
2018-09-05T10:43:44.360Z,100648.91
2018-09-05T10:44:51.006Z,100647.55
2018-09-05T10:45:57.186Z,100640.75
2018-09-05T10:47:03.842Z,100641.80
2018-09-05T10:48:09.929Z,100636.94
2018-09-05T10:49:16.485Z,100640.97
2018-09-05T10:50:22.825Z,100637.86
2018-09-05T10:51:29.047Z,100636.30
2018-09-05T10:52:35.729Z,100634.73
2018-09-05T10:53:42.491Z,100635.38
2018-09-05T10:54:48.962Z,100631.09
2018-09-05T10:55:54.905Z,100625.12
2018-09-05T10:57:01.617Z,100633.26
2018-09-05T10:58:07.789Z,100624.83
2018-09-05T10:59:14.399Z,100633.36
2018-09-05T11:00:20.716Z,100634.73
2018-09-05T11:01:27.190Z,100627.72
2018-09-05T11:02:33.823Z,100630.16
2018-09-05T11:03:40.237Z,100627.09
2018-09-05T11:04:47.721Z,100629.73
2018-09-05T11:05:54.076Z,100626.39
2018-09-05T11:07:00.572Z,100624.92
2018-09-05T11:08:06.938Z,100622.87
2018-09-05T11:09:13.404Z,100629.18
2018-09-05T11:10:19.789Z,100621.69
2018-09-05T11:11:26.718Z,100629.53
2018-09-05T11:12:33.340Z,100619.98
2018-09-05T11:13:39.804Z,100623.83
2018-09-05T11:14:47.399Z,100622.12
2018-09-05T11:15:54.755Z,100625.44
2018-09-05T11:17:01.088Z,100625.25
2018-09-05T11:18:07.971Z,100624.83
2018-09-05T11:19:14.279Z,100628.17
2018-09-05T11:20:20.478Z,100621.47
2018-09-05T11:21:26.704Z,100618.36
2018-09-05T11:22:33.245Z,100615.67
2018-09-05T11:23:39.712Z,100620.25
2018-09-05T11:24:46.018Z,100619.80
2018-09-05T11:25:52.347Z,100614.77
2018-09-05T11:26:58.734Z,100617.08
2018-09-05T11:28:05.170Z,100615.19
2018-09-05T11:29:11.818Z,100610.58
2018-09-05T11:30:20.557Z,100613.45
2018-09-05T11:31:27.817Z,100614.88
2018-09-05T11:32:35.335Z,100605.58
2018-09-05T11:33:42.678Z,100608.23
2018-09-05T11:34:49.712Z,100605.93
2018-09-05T11:35:57.764Z,100608.25
2018-09-05T11:37:05.293Z,100605.08
2018-09-05T11:38:12.736Z,100597.59
2018-09-05T11:39:20.186Z,100606.20
2018-09-05T11:40:27.781Z,100609.23
2018-09-05T11:41:34.647Z,100605.58
2018-09-05T11:42:41.674Z,100607.80
2018-09-05T11:43:48.092Z,100606.33
2018-09-05T11:44:54.546Z,100606.60
2018-09-05T11:46:02.620Z,100600.58
2018-09-05T11:47:10.294Z,100601.89
2018-09-05T11:48:17.346Z,100600.80
2018-09-05T11:49:24.150Z,100599.41
2018-09-05T11:50:31.318Z,100596.09
2018-09-05T11:51:38.099Z,100599.31
2018-09-05T11:52:44.626Z,100597.91
2018-09-05T11:53:51.996Z,100593.69
2018-09-05T11:54:59.600Z,100588.52
2018-09-05T11:56:05.913Z,100600.25
2018-09-05T11:57:12.608Z,100598.66
2018-09-05T11:58:20.993Z,100593.49
2018-09-05T11:59:27.292Z,100597.19
2018-09-05T12:00:34.742Z,100598.66
2018-09-05T12:01:41.533Z,100595.45
2018-09-05T12:02:49.546Z,100591.91
2018-09-05T12:03:57.686Z,100594.65
2018-09-05T12:05:06.687Z,100593.08
2018-09-05T12:06:14.066Z,100591.11
2018-09-05T12:07:20.704Z,100590.83
2018-09-05T12:08:26.992Z,100589.72
2018-09-05T12:09:33.629Z,100587.27
2018-09-05T12:10:40.766Z,100593.13
2018-09-05T12:11:47.687Z,100583.33
2018-09-05T12:12:54.184Z,100596.29
2018-09-05T12:14:01.096Z,100590.51
2018-09-05T12:15:07.826Z,100594.65
2018-09-05T12:16:14.853Z,100589.37
2018-09-05T12:17:21.396Z,100585.77
2018-09-05T12:18:28.631Z,100588.39
2018-09-05T12:19:35.800Z,100589.23
2018-09-05T12:20:42.754Z,100587.41
2018-09-05T12:21:49.739Z,100579.92
2018-09-05T12:22:57.435Z,100584.78
2018-09-05T12:24:04.157Z,100581.92
2018-09-05T12:25:10.874Z,100583.09
2018-09-05T12:26:17.850Z,100588.13
2018-09-05T12:27:24.300Z,100581.56
2018-09-05T12:28:31.438Z,100579.05
2018-09-05T12:29:38.702Z,100581.20
2018-09-05T12:30:45.027Z,100578.03
2018-09-05T12:31:51.982Z,100577.48
2018-09-05T12:32:59.965Z,100584.18
2018-09-05T12:34:06.483Z,100581.40
2018-09-05T12:35:13.545Z,100580.44
2018-09-05T12:36:20.373Z,100579.63
2018-09-05T12:37:27.235Z,100577.87
2018-09-05T12:38:33.817Z,100578.19
2018-09-05T12:39:41.170Z,100576.49
2018-09-05T12:40:47.767Z,100575.55
2018-09-05T12:41:55.446Z,100576.36